sensor_id;sensor_type;location;lat;lon;timestamp;P1;durP1;ratioP1;P2;durP2;ratioP2
18174;SDS011;9212;50.894;16.714;2022-11-20T00:36:23;3.80;;;2.47;;
18174;SDS011;9212;50.894;16.714;2022-11-20T00:38:52;4.63;;;3.13;;
18174;SDS011;9212;50.894;16.714;2022-11-20T00:41:20;3.23;;;2.30;;
18174;SDS011;9212;50.894;16.714;2022-11-20T00:43:47;3.43;;;1.93;;
18174;SDS011;9212;50.894;16.714;2022-11-20T00:46:15;1.87;;;1.77;;
18174;SDS011;9212;50.894;16.714;2022-11-20T00:48:43;2.57;;;2.20;;
18174;SDS011;9212;50.894;16.714;2022-11-20T00:51:10;2.50;;;2.13;;
18174;SDS011;9212;50.894;16.714;2022-11-20T00:53:41;3.13;;;2.40;;
18174;SDS011;9212;50.894;16.714;2022-11-20T00:56:09;5.53;;;3.03;;
18174;SDS011;9212;50.894;16.714;2022-11-20T00:58:37;4.20;;;2.53;;
18174;SDS011;9212;50.894;16.714;2022-11-20T01:01:06;2.67;;;1.93;;
18174;SDS011;9212;50.894;16.714;2022-11-20T01:03:35;3.77;;;3.00;;
18174;SDS011;9212;50.894;16.714;2022-11-20T01:06:05;2.27;;;1.73;;
18174;SDS011;9212;50.894;16.714;2022-11-20T01:08:34;3.53;;;2.47;;
18174;SDS011;9212;50.894;16.714;2022-11-20T01:11:03;4.03;;;2.37;;
18174;SDS011;9212;50.894;16.714;2022-11-20T01:13:32;2.37;;;1.80;;
18174;SDS011;9212;50.894;16.714;2022-11-20T01:16:06;3.33;;;2.20;;
18174;SDS011;9212;50.894;16.714;2022-11-20T01:18:34;2.70;;;1.70;;
18174;SDS011;9212;50.894;16.714;2022-11-20T01:21:02;3.07;;;2.23;;
18174;SDS011;9212;50.894;16.714;2022-11-20T01:23:31;4.20;;;2.03;;
18174;SDS011;9212;50.894;16.714;2022-11-20T01:25:59;2.90;;;2.63;;
18174;SDS011;9212;50.894;16.714;2022-11-20T01:28:29;2.33;;;1.80;;
18174;SDS011;9212;50.894;16.714;2022-11-20T01:30:56;3.53;;;2.70;;
18174;SDS011;9212;50.894;16.714;2022-11-20T01:33:24;3.00;;;2.43;;
18174;SDS011;9212;50.894;16.714;2022-11-20T01:35:51;1.67;;;1.57;;
18174;SDS011;9212;50.894;16.714;2022-11-20T01:38:18;2.87;;;2.13;;
18174;SDS011;9212;50.894;16.714;2022-11-20T01:40:53;3.57;;;1.90;;
18174;SDS011;9212;50.894;16.714;2022-11-20T01:43:20;2.43;;;1.53;;
18174;SDS011;9212;50.894;16.714;2022-11-20T01:48:43;3.23;;;2.27;;
18174;SDS011;9212;50.894;16.714;2022-11-20T01:51:19;3.23;;;2.13;;
18174;SDS011;9212;50.894;16.714;2022-11-20T01:53:51;4.33;;;1.83;;
18174;SDS011;9212;50.894;16.714;2022-11-20T01:56:20;2.70;;;1.20;;
18174;SDS011;9212;50.894;16.714;2022-11-20T01:58:50;2.10;;;1.73;;
18174;SDS011;9212;50.894;16.714;2022-11-20T02:01:20;1.20;;;1.20;;
18174;SDS011;9212;50.894;16.714;2022-11-20T02:03:48;1.57;;;1.47;;
18174;SDS011;9212;50.894;16.714;2022-11-20T02:06:17;2.40;;;1.67;;
18174;SDS011;9212;50.894;16.714;2022-11-20T02:08:50;2.30;;;1.17;;
18174;SDS011;9212;50.894;16.714;2022-11-20T02:11:18;1.30;;;1.30;;
18174;SDS011;9212;50.894;16.714;2022-11-20T02:13:45;2.13;;;1.57;;
18174;SDS011;9212;50.894;16.714;2022-11-20T02:16:12;1.63;;;1.53;;
18174;SDS011;9212;50.894;16.714;2022-11-20T02:18:44;1.17;;;1.17;;
18174;SDS011;9212;50.894;16.714;2022-11-20T02:21:14;1.77;;;1.40;;
18174;SDS011;9212;50.894;16.714;2022-11-20T02:23:58;3.60;;;1.53;;
18174;SDS011;9212;50.894;16.714;2022-11-20T02:26:27;1.50;;;1.40;;
18174;SDS011;9212;50.894;16.714;2022-11-20T02:28:57;1.30;;;1.30;;
18174;SDS011;9212;50.894;16.714;2022-11-20T02:31:26;2.27;;;2.07;;
18174;SDS011;9212;50.894;16.714;2022-11-20T02:33:55;2.17;;;1.97;;
18174;SDS011;9212;50.894;16.714;2022-11-20T02:36:23;5.63;;;2.97;;
18174;SDS011;9212;50.894;16.714;2022-11-20T02:38:52;4.47;;;2.77;;
18174;SDS011;9212;50.894;16.714;2022-11-20T02:41:21;4.13;;;2.73;;
18174;SDS011;9212;50.894;16.714;2022-11-20T02:43:56;5.90;;;2.87;;
18174;SDS011;9212;50.894;16.714;2022-11-20T02:46:23;3.70;;;2.27;;
18174;SDS011;9212;50.894;16.714;2022-11-20T02:48:50;2.50;;;1.60;;
18174;SDS011;9212;50.894;16.714;2022-11-20T02:51:16;2.30;;;1.77;;
18174;SDS011;9212;50.894;16.714;2022-11-20T02:53:43;2.47;;;2.20;;
18174;SDS011;9212;50.894;16.714;2022-11-20T02:56:10;2.50;;;1.97;;
18174;SDS011;9212;50.894;16.714;2022-11-20T02:58:39;0.90;;;0.90;;
18174;SDS011;9212;50.894;16.714;2022-11-20T03:01:05;2.97;;;1.70;;
18174;SDS011;9212;50.894;16.714;2022-11-20T03:03:32;1.60;;;1.50;;
18174;SDS011;9212;50.894;16.714;2022-11-20T03:05:59;2.10;;;1.90;;
18174;SDS011;9212;50.894;16.714;2022-11-20T03:08:26;2.77;;;2.03;;
18174;SDS011;9212;50.894;16.714;2022-11-20T03:10:53;2.67;;;2.30;;
18174;SDS011;9212;50.894;16.714;2022-11-20T03:13:20;3.83;;;2.23;;
18174;SDS011;9212;50.894;16.714;2022-11-20T03:15:49;2.63;;;1.80;;
18174;SDS011;9212;50.894;16.714;2022-11-20T03:18:15;1.67;;;1.57;;
18174;SDS011;9212;50.894;16.714;2022-11-20T03:20:42;3.27;;;1.77;;
18174;SDS011;9212;50.894;16.714;2022-11-20T03:23:09;1.93;;;1.80;;
18174;SDS011;9212;50.894;16.714;2022-11-20T03:25:37;1.40;;;1.37;;
18174;SDS011;9212;50.894;16.714;2022-11-20T03:28:04;3.80;;;2.17;;
18174;SDS011;9212;50.894;16.714;2022-11-20T03:30:31;2.27;;;2.07;;
18174;SDS011;9212;50.894;16.714;2022-11-20T03:33:00;2.80;;;2.27;;
18174;SDS011;9212;50.894;16.714;2022-11-20T03:35:27;2.13;;;2.03;;
18174;SDS011;9212;50.894;16.714;2022-11-20T03:37:54;2.77;;;1.80;;
18174;SDS011;9212;50.894;16.714;2022-11-20T03:40:21;1.60;;;1.50;;
18174;SDS011;9212;50.894;16.714;2022-11-20T03:42:48;3.10;;;2.03;;
18174;SDS011;9212;50.894;16.714;2022-11-20T03:45:15;2.93;;;1.80;;
18174;SDS011;9212;50.894;16.714;2022-11-20T03:47:43;1.57;;;1.43;;
18174;SDS011;9212;50.894;16.714;2022-11-20T03:50:12;3.37;;;2.00;;
18174;SDS011;9212;50.894;16.714;2022-11-20T03:52:40;1.67;;;1.57;;
18174;SDS011;9212;50.894;16.714;2022-11-20T03:55:07;4.53;;;2.30;;
18174;SDS011;9212;50.894;16.714;2022-11-20T03:57:34;3.90;;;2.13;;
18174;SDS011;9212;50.894;16.714;2022-11-20T04:00:01;2.73;;;2.50;;
18174;SDS011;9212;50.894;16.714;2022-11-20T04:02:29;1.60;;;1.50;;
18174;SDS011;9212;50.894;16.714;2022-11-20T04:04:56;3.00;;;2.80;;
18174;SDS011;9212;50.894;16.714;2022-11-20T04:07:25;2.47;;;2.30;;
18174;SDS011;9212;50.894;16.714;2022-11-20T04:09:52;1.87;;;1.73;;
18174;SDS011;9212;50.894;16.714;2022-11-20T04:12:18;2.20;;;2.00;;
18174;SDS011;9212;50.894;16.714;2022-11-20T04:14:46;1.63;;;1.53;;
18174;SDS011;9212;50.894;16.714;2022-11-20T04:17:13;1.57;;;1.47;;
18174;SDS011;9212;50.894;16.714;2022-11-20T04:19:39;2.03;;;1.93;;
18174;SDS011;9212;50.894;16.714;2022-11-20T04:22:06;1.63;;;1.53;;
18174;SDS011;9212;50.894;16.714;2022-11-20T04:24:35;2.10;;;2.00;;
18174;SDS011;9212;50.894;16.714;2022-11-20T04:27:02;2.90;;;2.20;;
18174;SDS011;9212;50.894;16.714;2022-11-20T04:29:29;4.80;;;1.80;;
18174;SDS011;9212;50.894;16.714;2022-11-20T04:31:55;2.10;;;1.90;;
18174;SDS011;9212;50.894;16.714;2022-11-20T04:34:22;1.43;;;1.33;;
18174;SDS011;9212;50.894;16.714;2022-11-20T04:36:49;1.53;;;1.33;;
18174;SDS011;9212;50.894;16.714;2022-11-20T04:39:16;1.83;;;1.73;;
18174;SDS011;9212;50.894;16.714;2022-11-20T04:41:44;2.00;;;1.63;;
18174;SDS011;9212;50.894;16.714;2022-11-20T04:44:11;2.90;;;1.83;;
18174;SDS011;9212;50.894;16.714;2022-11-20T04:46:39;1.97;;;1.63;;
18174;SDS011;9212;50.894;16.714;2022-11-20T04:49:08;4.30;;;1.87;;
18174;SDS011;9212;50.894;16.714;2022-11-20T04:51:36;2.83;;;1.80;;
18174;SDS011;9212;50.894;16.714;2022-11-20T04:54:03;3.73;;;2.27;;
18174;SDS011;9212;50.894;16.714;2022-11-20T04:56:30;2.87;;;2.70;;
18174;SDS011;9212;50.894;16.714;2022-11-20T04:59:01;1.77;;;1.63;;
18174;SDS011;9212;50.894;16.714;2022-11-20T05:01:28;1.60;;;1.50;;
18174;SDS011;9212;50.894;16.714;2022-11-20T05:03:55;3.33;;;2.27;;
18174;SDS011;9212;50.894;16.714;2022-11-20T05:06:22;2.63;;;2.07;;
18174;SDS011;9212;50.894;16.714;2022-11-20T05:08:49;1.93;;;1.80;;
18174;SDS011;9212;50.894;16.714;2022-11-20T05:11:17;2.47;;;2.27;;
18174;SDS011;9212;50.894;16.714;2022-11-20T05:13:45;2.50;;;2.30;;
18174;SDS011;9212;50.894;16.714;2022-11-20T05:16:15;1.80;;;1.70;;
18174;SDS011;9212;50.894;16.714;2022-11-20T05:18:43;2.47;;;1.70;;
18174;SDS011;9212;50.894;16.714;2022-11-20T05:21:11;2.10;;;2.00;;
18174;SDS011;9212;50.894;16.714;2022-11-20T05:23:39;2.97;;;2.03;;
18174;SDS011;9212;50.894;16.714;2022-11-20T05:26:07;2.07;;;1.97;;
18174;SDS011;9212;50.894;16.714;2022-11-20T05:28:37;3.80;;;2.83;;
18174;SDS011;9212;50.894;16.714;2022-11-20T05:31:05;2.07;;;1.80;;
18174;SDS011;9212;50.894;16.714;2022-11-20T05:33:34;1.63;;;1.60;;
18174;SDS011;9212;50.894;16.714;2022-11-20T05:36:02;1.73;;;1.63;;
18174;SDS011;9212;50.894;16.714;2022-11-20T05:38:30;3.97;;;1.87;;
18174;SDS011;9212;50.894;16.714;2022-11-20T05:41:02;2.20;;;1.83;;
18174;SDS011;9212;50.894;16.714;2022-11-20T05:43:31;1.77;;;1.67;;
18174;SDS011;9212;50.894;16.714;2022-11-20T05:45:59;3.07;;;1.93;;
18174;SDS011;9212;50.894;16.714;2022-11-20T05:48:26;2.10;;;2.00;;
18174;SDS011;9212;50.894;16.714;2022-11-20T05:50:56;2.47;;;1.80;;
18174;SDS011;9212;50.894;16.714;2022-11-20T05:53:23;2.07;;;1.97;;
18174;SDS011;9212;50.894;16.714;2022-11-20T05:55:55;2.37;;;2.03;;
18174;SDS011;9212;50.894;16.714;2022-11-20T05:58:23;1.70;;;1.60;;
18174;SDS011;9212;50.894;16.714;2022-11-20T06:00:50;2.03;;;1.87;;
18174;SDS011;9212;50.894;16.714;2022-11-20T06:03:17;1.80;;;1.63;;
18174;SDS011;9212;50.894;16.714;2022-11-20T06:05:44;2.57;;;2.37;;
18174;SDS011;9212;50.894;16.714;2022-11-20T06:08:12;7.40;;;2.27;;
18174;SDS011;9212;50.894;16.714;2022-11-20T06:10:39;2.63;;;1.97;;
18174;SDS011;9212;50.894;16.714;2022-11-20T06:13:06;2.37;;;2.17;;
18174;SDS011;9212;50.894;16.714;2022-11-20T06:15:33;2.40;;;2.20;;
18174;SDS011;9212;50.894;16.714;2022-11-20T06:18:00;2.13;;;1.93;;
18174;SDS011;9212;50.894;16.714;2022-11-20T06:20:27;2.50;;;2.30;;
18174;SDS011;9212;50.894;16.714;2022-11-20T06:22:54;4.37;;;2.13;;
18174;SDS011;9212;50.894;16.714;2022-11-20T06:25:22;3.00;;;2.70;;
18174;SDS011;9212;50.894;16.714;2022-11-20T06:27:49;2.50;;;2.30;;
18174;SDS011;9212;50.894;16.714;2022-11-20T06:30:16;1.93;;;1.80;;
18174;SDS011;9212;50.894;16.714;2022-11-20T06:32:43;2.27;;;1.80;;
18174;SDS011;9212;50.894;16.714;2022-11-20T06:35:10;3.40;;;2.77;;
18174;SDS011;9212;50.894;16.714;2022-11-20T06:37:37;2.77;;;1.83;;
18174;SDS011;9212;50.894;16.714;2022-11-20T06:40:04;2.97;;;1.93;;
18174;SDS011;9212;50.894;16.714;2022-11-20T06:42:33;2.27;;;2.03;;
18174;SDS011;9212;50.894;16.714;2022-11-20T06:45:00;2.53;;;2.33;;
18174;SDS011;9212;50.894;16.714;2022-11-20T06:47:27;3.17;;;2.63;;
18174;SDS011;9212;50.894;16.714;2022-11-20T06:49:54;3.33;;;2.47;;
18174;SDS011;9212;50.894;16.714;2022-11-20T06:52:21;2.33;;;1.87;;
18174;SDS011;9212;50.894;16.714;2022-11-20T06:54:48;3.80;;;2.37;;
18174;SDS011;9212;50.894;16.714;2022-11-20T06:57:15;4.63;;;2.10;;
18174;SDS011;9212;50.894;16.714;2022-11-20T06:59:43;5.27;;;1.97;;
18174;SDS011;9212;50.894;16.714;2022-11-20T07:02:10;2.90;;;2.47;;
18174;SDS011;9212;50.894;16.714;2022-11-20T07:04:38;1.90;;;1.63;;
18174;SDS011;9212;50.894;16.714;2022-11-20T07:07:05;2.30;;;2.20;;
18174;SDS011;9212;50.894;16.714;2022-11-20T07:09:32;2.10;;;1.90;;
18174;SDS011;9212;50.894;16.714;2022-11-20T07:11:59;7.27;;;2.40;;
18174;SDS011;9212;50.894;16.714;2022-11-20T07:14:26;4.30;;;2.53;;
18174;SDS011;9212;50.894;16.714;2022-11-20T07:16:55;3.33;;;1.93;;
18174;SDS011;9212;50.894;16.714;2022-11-20T07:19:22;3.97;;;2.13;;
18174;SDS011;9212;50.894;16.714;2022-11-20T07:21:49;3.20;;;2.23;;
18174;SDS011;9212;50.894;16.714;2022-11-20T07:24:15;3.83;;;2.00;;
18174;SDS011;9212;50.894;16.714;2022-11-20T07:26:42;3.30;;;2.20;;
18174;SDS011;9212;50.894;16.714;2022-11-20T07:29:12;3.00;;;2.60;;
18174;SDS011;9212;50.894;16.714;2022-11-20T07:31:39;2.10;;;1.90;;
18174;SDS011;9212;50.894;16.714;2022-11-20T07:34:07;3.23;;;2.60;;
18174;SDS011;9212;50.894;16.714;2022-11-20T07:36:34;3.63;;;2.67;;
18174;SDS011;9212;50.894;16.714;2022-11-20T07:39:01;3.10;;;2.80;;
18174;SDS011;9212;50.894;16.714;2022-11-20T07:41:28;2.93;;;2.10;;
18174;SDS011;9212;50.894;16.714;2022-11-20T07:43:58;2.83;;;2.00;;
18174;SDS011;9212;50.894;16.714;2022-11-20T07:46:25;5.10;;;2.63;;
18174;SDS011;9212;50.894;16.714;2022-11-20T07:48:52;9.60;;;3.53;;
18174;SDS011;9212;50.894;16.714;2022-11-20T07:51:20;3.33;;;2.73;;
18174;SDS011;9212;50.894;16.714;2022-11-20T07:53:47;7.30;;;3.50;;
18174;SDS011;9212;50.894;16.714;2022-11-20T07:56:16;5.17;;;4.00;;
18174;SDS011;9212;50.894;16.714;2022-11-20T07:58:43;4.43;;;3.30;;
18174;SDS011;9212;50.894;16.714;2022-11-20T08:01:10;5.17;;;2.57;;
18174;SDS011;9212;50.894;16.714;2022-11-20T08:03:37;5.00;;;2.93;;
18174;SDS011;9212;50.894;16.714;2022-11-20T08:06:05;3.37;;;2.07;;
18174;SDS011;9212;50.894;16.714;2022-11-20T08:08:33;3.77;;;2.63;;
18174;SDS011;9212;50.894;16.714;2022-11-20T08:11:00;12.73;;;3.70;;
18174;SDS011;9212;50.894;16.714;2022-11-20T08:13:41;3.90;;;3.50;;
18174;SDS011;9212;50.894;16.714;2022-11-20T08:16:25;5.77;;;3.00;;
18174;SDS011;9212;50.894;16.714;2022-11-20T08:18:53;3.63;;;2.33;;
18174;SDS011;9212;50.894;16.714;2022-11-20T08:21:20;5.23;;;3.30;;
18174;SDS011;9212;50.894;16.714;2022-11-20T08:23:48;4.87;;;3.07;;
18174;SDS011;9212;50.894;16.714;2022-11-20T08:26:15;5.07;;;3.00;;
18174;SDS011;9212;50.894;16.714;2022-11-20T08:28:42;8.17;;;4.03;;
18174;SDS011;9212;50.894;16.714;2022-11-20T08:31:09;4.20;;;2.77;;
18174;SDS011;9212;50.894;16.714;2022-11-20T08:33:36;9.77;;;3.90;;
18174;SDS011;9212;50.894;16.714;2022-11-20T08:36:03;5.43;;;3.30;;
18174;SDS011;9212;50.894;16.714;2022-11-20T08:38:31;6.13;;;3.23;;
18174;SDS011;9212;50.894;16.714;2022-11-20T08:41:00;5.47;;;3.47;;
18174;SDS011;9212;50.894;16.714;2022-11-20T08:43:46;5.27;;;3.10;;
18174;SDS011;9212;50.894;16.714;2022-11-20T08:46:13;7.50;;;4.57;;
18174;SDS011;9212;50.894;16.714;2022-11-20T08:48:40;9.97;;;5.00;;
18174;SDS011;9212;50.894;16.714;2022-11-20T08:51:07;14.90;;;6.40;;
18174;SDS011;9212;50.894;16.714;2022-11-20T08:53:34;19.47;;;7.47;;
18174;SDS011;9212;50.894;16.714;2022-11-20T08:56:03;13.87;;;6.63;;
18174;SDS011;9212;50.894;16.714;2022-11-20T08:58:30;36.03;;;14.87;;
18174;SDS011;9212;50.894;16.714;2022-11-20T09:00:57;37.97;;;13.03;;
18174;SDS011;9212;50.894;16.714;2022-11-20T09:03:24;66.90;;;21.43;;
18174;SDS011;9212;50.894;16.714;2022-11-20T09:05:56;54.43;;;21.03;;
18174;SDS011;9212;50.894;16.714;2022-11-20T09:08:23;53.33;;;19.67;;
18174;SDS011;9212;50.894;16.714;2022-11-20T09:10:51;45.30;;;17.70;;
18174;SDS011;9212;50.894;16.714;2022-11-20T09:13:19;60.17;;;20.37;;
18174;SDS011;9212;50.894;16.714;2022-11-20T09:15:46;41.83;;;18.27;;
18174;SDS011;9212;50.894;16.714;2022-11-20T09:18:18;44.03;;;17.70;;
18174;SDS011;9212;50.894;16.714;2022-11-20T09:20:45;45.73;;;16.70;;
18174;SDS011;9212;50.894;16.714;2022-11-20T09:23:13;40.93;;;17.27;;
18174;SDS011;9212;50.894;16.714;2022-11-20T09:25:41;51.33;;;18.43;;
18174;SDS011;9212;50.894;16.714;2022-11-20T09:28:08;46.70;;;18.73;;
18174;SDS011;9212;50.894;16.714;2022-11-20T09:30:37;61.00;;;23.87;;
18174;SDS011;9212;50.894;16.714;2022-11-20T09:33:04;48.40;;;18.93;;
18174;SDS011;9212;50.894;16.714;2022-11-20T09:35:32;44.40;;;18.43;;
18174;SDS011;9212;50.894;16.714;2022-11-20T09:38:03;43.50;;;16.07;;
18174;SDS011;9212;50.894;16.714;2022-11-20T09:40:31;37.80;;;16.93;;
18174;SDS011;9212;50.894;16.714;2022-11-20T09:42:59;35.13;;;14.43;;
18174;SDS011;9212;50.894;16.714;2022-11-20T09:45:46;30.97;;;14.20;;
18174;SDS011;9212;50.894;16.714;2022-11-20T09:48:36;42.30;;;16.90;;
18174;SDS011;9212;50.894;16.714;2022-11-20T09:51:15;28.67;;;12.30;;
18174;SDS011;9212;50.894;16.714;2022-11-20T09:53:54;31.70;;;12.63;;
18174;SDS011;9212;50.894;16.714;2022-11-20T09:56:29;35.00;;;11.00;;
18174;SDS011;9212;50.894;16.714;2022-11-20T09:58:59;32.40;;;15.17;;
18174;SDS011;9212;50.894;16.714;2022-11-20T10:01:33;38.43;;;14.67;;
18174;SDS011;9212;50.894;16.714;2022-11-20T10:04:03;31.43;;;15.20;;
18174;SDS011;9212;50.894;16.714;2022-11-20T10:06:37;32.07;;;13.50;;
18174;SDS011;9212;50.894;16.714;2022-11-20T10:09:14;44.30;;;16.93;;
18174;SDS011;9212;50.894;16.714;2022-11-20T10:11:48;31.07;;;13.80;;
18174;SDS011;9212;50.894;16.714;2022-11-20T10:14:26;29.60;;;13.27;;
18174;SDS011;9212;50.894;16.714;2022-11-20T10:17:08;33.23;;;13.13;;
18174;SDS011;9212;50.894;16.714;2022-11-20T10:19:52;26.70;;;11.93;;
18174;SDS011;9212;50.894;16.714;2022-11-20T10:22:31;28.03;;;13.30;;
18174;SDS011;9212;50.894;16.714;2022-11-20T10:25:10;27.20;;;11.97;;
18174;SDS011;9212;50.894;16.714;2022-11-20T10:27:44;30.40;;;11.93;;
18174;SDS011;9212;50.894;16.714;2022-11-20T10:30:20;32.97;;;14.03;;
18174;SDS011;9212;50.894;16.714;2022-11-20T10:32:52;35.47;;;14.53;;
18174;SDS011;9212;50.894;16.714;2022-11-20T10:35:25;16.83;;;7.47;;
18174;SDS011;9212;50.894;16.714;2022-11-20T10:37:58;29.33;;;11.27;;
18174;SDS011;9212;50.894;16.714;2022-11-20T10:40:29;16.10;;;6.37;;
18174;SDS011;9212;50.894;16.714;2022-11-20T10:43:01;19.20;;;8.30;;
18174;SDS011;9212;50.894;16.714;2022-11-20T10:45:36;17.07;;;9.03;;
18174;SDS011;9212;50.894;16.714;2022-11-20T10:48:14;13.00;;;5.87;;
18174;SDS011;9212;50.894;16.714;2022-11-20T10:53:46;15.30;;;8.30;;
18174;SDS011;9212;50.894;16.714;2022-11-20T10:56:24;15.03;;;6.87;;
18174;SDS011;9212;50.894;16.714;2022-11-20T10:59:02;10.57;;;6.50;;
18174;SDS011;9212;50.894;16.714;2022-11-20T11:01:45;12.50;;;6.77;;
18174;SDS011;9212;50.894;16.714;2022-11-20T11:04:18;20.10;;;8.23;;
18174;SDS011;9212;50.894;16.714;2022-11-20T11:07:05;19.07;;;9.40;;
18174;SDS011;9212;50.894;16.714;2022-11-20T11:09:37;14.60;;;6.77;;
18174;SDS011;9212;50.894;16.714;2022-11-20T11:12:07;17.57;;;7.90;;
18174;SDS011;9212;50.894;16.714;2022-11-20T11:14:42;14.90;;;7.37;;
18174;SDS011;9212;50.894;16.714;2022-11-20T11:17:21;25.03;;;10.90;;
18174;SDS011;9212;50.894;16.714;2022-11-20T11:20:01;23.57;;;10.17;;
18174;SDS011;9212;50.894;16.714;2022-11-20T11:22:31;20.17;;;10.57;;
18174;SDS011;9212;50.894;16.714;2022-11-20T11:24:59;19.23;;;9.30;;
18174;SDS011;9212;50.894;16.714;2022-11-20T11:27:27;21.03;;;9.53;;
18174;SDS011;9212;50.894;16.714;2022-11-20T11:30:11;26.40;;;10.33;;
18174;SDS011;9212;50.894;16.714;2022-11-20T11:32:40;26.63;;;10.13;;
18174;SDS011;9212;50.894;16.714;2022-11-20T11:35:19;23.23;;;10.40;;
18174;SDS011;9212;50.894;16.714;2022-11-20T11:37:48;20.30;;;8.13;;
18174;SDS011;9212;50.894;16.714;2022-11-20T11:40:16;24.43;;;8.33;;
18174;SDS011;9212;50.894;16.714;2022-11-20T11:42:46;17.00;;;8.47;;
18174;SDS011;9212;50.894;16.714;2022-11-20T11:45:20;17.83;;;7.93;;
18174;SDS011;9212;50.894;16.714;2022-11-20T11:47:47;18.73;;;8.07;;
18174;SDS011;9212;50.894;16.714;2022-11-20T11:50:17;15.77;;;7.90;;
18174;SDS011;9212;50.894;16.714;2022-11-20T11:52:50;18.07;;;9.03;;
18174;SDS011;9212;50.894;16.714;2022-11-20T11:55:33;18.40;;;8.43;;
18174;SDS011;9212;50.894;16.714;2022-11-20T11:58:11;18.67;;;8.47;;
18174;SDS011;9212;50.894;16.714;2022-11-20T12:00:49;16.17;;;7.37;;
18174;SDS011;9212;50.894;16.714;2022-11-20T12:03:21;15.53;;;8.40;;
18174;SDS011;9212;50.894;16.714;2022-11-20T12:05:57;24.10;;;10.60;;
18174;SDS011;9212;50.894;16.714;2022-11-20T12:08:27;21.27;;;10.53;;
18174;SDS011;9212;50.894;16.714;2022-11-20T12:11:00;15.97;;;7.33;;
18174;SDS011;9212;50.894;16.714;2022-11-20T12:13:34;18.53;;;8.20;;
18174;SDS011;9212;50.894;16.714;2022-11-20T12:16:07;17.13;;;8.70;;
18174;SDS011;9212;50.894;16.714;2022-11-20T12:18:39;17.27;;;7.80;;
18174;SDS011;9212;50.894;16.714;2022-11-20T12:21:11;18.37;;;9.30;;
18174;SDS011;9212;50.894;16.714;2022-11-20T12:23:48;16.87;;;8.60;;
18174;SDS011;9212;50.894;16.714;2022-11-20T12:26:29;18.73;;;8.93;;
18174;SDS011;9212;50.894;16.714;2022-11-20T12:29:12;16.43;;;8.00;;
18174;SDS011;9212;50.894;16.714;2022-11-20T12:31:51;17.03;;;8.57;;
18174;SDS011;9212;50.894;16.714;2022-11-20T12:34:43;18.77;;;8.80;;
18174;SDS011;9212;50.894;16.714;2022-11-20T12:37:18;13.67;;;7.37;;
18174;SDS011;9212;50.894;16.714;2022-11-20T12:39:56;13.70;;;7.23;;
18174;SDS011;9212;50.894;16.714;2022-11-20T12:42:31;18.23;;;8.43;;
18174;SDS011;9212;50.894;16.714;2022-11-20T12:45:31;19.63;;;10.10;;
18174;SDS011;9212;50.894;16.714;2022-11-20T12:48:23;16.30;;;7.57;;
18174;SDS011;9212;50.894;16.714;2022-11-20T12:51:21;22.77;;;10.20;;
18174;SDS011;9212;50.894;16.714;2022-11-20T12:54:09;18.60;;;8.63;;
18174;SDS011;9212;50.894;16.714;2022-11-20T12:56:52;13.77;;;7.20;;
18174;SDS011;9212;50.894;16.714;2022-11-20T12:59:28;19.87;;;9.20;;
18174;SDS011;9212;50.894;16.714;2022-11-20T13:02:19;24.50;;;9.93;;
18174;SDS011;9212;50.894;16.714;2022-11-20T13:07:53;16.83;;;7.27;;
18174;SDS011;9212;50.894;16.714;2022-11-20T13:10:25;22.47;;;8.97;;
18174;SDS011;9212;50.894;16.714;2022-11-20T13:13:00;19.77;;;8.80;;
18174;SDS011;9212;50.894;16.714;2022-11-20T13:15:41;30.40;;;13.30;;
18174;SDS011;9212;50.894;16.714;2022-11-20T13:18:14;33.43;;;14.97;;
18174;SDS011;9212;50.894;16.714;2022-11-20T13:20:42;13.57;;;8.27;;
18174;SDS011;9212;50.894;16.714;2022-11-20T13:23:22;27.90;;;13.70;;
18174;SDS011;9212;50.894;16.714;2022-11-20T13:26:01;15.67;;;7.03;;
18174;SDS011;9212;50.894;16.714;2022-11-20T13:28:30;15.53;;;7.20;;
18174;SDS011;9212;50.894;16.714;2022-11-20T13:30:57;14.37;;;7.47;;
18174;SDS011;9212;50.894;16.714;2022-11-20T13:33:27;17.57;;;7.97;;
18174;SDS011;9212;50.894;16.714;2022-11-20T13:35:56;14.03;;;6.77;;
18174;SDS011;9212;50.894;16.714;2022-11-20T13:38:25;14.50;;;7.83;;
18174;SDS011;9212;50.894;16.714;2022-11-20T13:40:54;12.97;;;6.93;;
18174;SDS011;9212;50.894;16.714;2022-11-20T13:43:26;14.67;;;7.63;;
18174;SDS011;9212;50.894;16.714;2022-11-20T13:45:59;13.57;;;7.47;;
18174;SDS011;9212;50.894;16.714;2022-11-20T13:48:29;17.53;;;7.57;;
18174;SDS011;9212;50.894;16.714;2022-11-20T13:51:11;18.33;;;9.07;;
18174;SDS011;9212;50.894;16.714;2022-11-20T13:53:51;20.27;;;8.97;;
18174;SDS011;9212;50.894;16.714;2022-11-20T13:56:31;15.63;;;7.93;;
18174;SDS011;9212;50.894;16.714;2022-11-20T13:59:08;15.27;;;7.87;;
18174;SDS011;9212;50.894;16.714;2022-11-20T14:01:45;19.43;;;10.00;;
18174;SDS011;9212;50.894;16.714;2022-11-20T14:04:14;18.30;;;8.63;;
18174;SDS011;9212;50.894;16.714;2022-11-20T14:06:44;18.97;;;8.80;;
18174;SDS011;9212;50.894;16.714;2022-11-20T14:09:23;23.93;;;9.67;;
18174;SDS011;9212;50.894;16.714;2022-11-20T14:11:53;25.93;;;11.07;;
18174;SDS011;9212;50.894;16.714;2022-11-20T14:14:24;24.57;;;11.37;;
18174;SDS011;9212;50.894;16.714;2022-11-20T14:16:52;22.17;;;11.50;;
18174;SDS011;9212;50.894;16.714;2022-11-20T14:19:31;24.00;;;11.03;;
18174;SDS011;9212;50.894;16.714;2022-11-20T14:22:09;27.40;;;12.60;;
18174;SDS011;9212;50.894;16.714;2022-11-20T14:24:42;25.43;;;10.63;;
18174;SDS011;9212;50.894;16.714;2022-11-20T14:27:13;23.03;;;10.50;;
18174;SDS011;9212;50.894;16.714;2022-11-20T14:29:41;35.20;;;14.60;;
18174;SDS011;9212;50.894;16.714;2022-11-20T14:32:10;29.90;;;12.83;;
18174;SDS011;9212;50.894;16.714;2022-11-20T14:34:41;30.93;;;14.60;;
18174;SDS011;9212;50.894;16.714;2022-11-20T14:37:10;30.00;;;13.77;;
18174;SDS011;9212;50.894;16.714;2022-11-20T14:39:40;23.60;;;12.50;;
18174;SDS011;9212;50.894;16.714;2022-11-20T14:42:16;41.77;;;17.67;;
18174;SDS011;9212;50.894;16.714;2022-11-20T14:44:44;24.83;;;10.83;;
18174;SDS011;9212;50.894;16.714;2022-11-20T14:47:12;32.60;;;14.10;;
18174;SDS011;9212;50.894;16.714;2022-11-20T14:49:41;34.30;;;14.60;;
18174;SDS011;9212;50.894;16.714;2022-11-20T14:52:10;27.00;;;10.73;;
18174;SDS011;9212;50.894;16.714;2022-11-20T14:54:43;33.27;;;14.00;;
18174;SDS011;9212;50.894;16.714;2022-11-20T14:57:21;33.10;;;12.97;;
18174;SDS011;9212;50.894;16.714;2022-11-20T14:59:50;32.17;;;14.43;;
18174;SDS011;9212;50.894;16.714;2022-11-20T15:02:17;33.77;;;15.67;;
18174;SDS011;9212;50.894;16.714;2022-11-20T15:04:45;37.93;;;14.80;;
18174;SDS011;9212;50.894;16.714;2022-11-20T15:07:22;46.37;;;16.53;;
18174;SDS011;9212;50.894;16.714;2022-11-20T15:09:58;47.43;;;17.03;;
18174;SDS011;9212;50.894;16.714;2022-11-20T15:12:28;43.10;;;16.20;;
18174;SDS011;9212;50.894;16.714;2022-11-20T15:14:56;34.20;;;13.60;;
18174;SDS011;9212;50.894;16.714;2022-11-20T15:17:23;33.83;;;13.43;;
18174;SDS011;9212;50.894;16.714;2022-11-20T15:19:50;32.67;;;12.33;;
18174;SDS011;9212;50.894;16.714;2022-11-20T15:22:18;38.00;;;14.77;;
18174;SDS011;9212;50.894;16.714;2022-11-20T15:24:45;37.17;;;15.30;;
18174;SDS011;9212;50.894;16.714;2022-11-20T15:27:12;34.13;;;14.43;;
18174;SDS011;9212;50.894;16.714;2022-11-20T15:29:40;44.37;;;15.67;;
18174;SDS011;9212;50.894;16.714;2022-11-20T15:32:08;38.07;;;14.77;;
18174;SDS011;9212;50.894;16.714;2022-11-20T15:34:35;33.50;;;14.67;;
18174;SDS011;9212;50.894;16.714;2022-11-20T15:37:02;40.63;;;15.00;;
18174;SDS011;9212;50.894;16.714;2022-11-20T15:39:29;30.90;;;13.50;;
18174;SDS011;9212;50.894;16.714;2022-11-20T15:41:56;35.60;;;15.27;;